createdAt,value
2022-11-21T00:01:43.029Z,9.70
2022-11-21T00:04:12.645Z,9.60
2022-11-21T00:06:42.143Z,9.70
2022-11-21T00:09:11.706Z,9.60
2022-11-21T00:11:41.266Z,9.50
2022-11-21T00:14:10.759Z,9.60
2022-11-21T00:16:40.463Z,9.60
2022-11-21T00:19:09.960Z,9.60
2022-11-21T00:21:39.465Z,9.50
2022-11-21T00:24:11.833Z,9.60
2022-11-21T00:26:41.392Z,9.60
2022-11-21T00:29:11.084Z,9.50
2022-11-21T00:31:40.588Z,9.50
2022-11-21T00:34:11.691Z,9.40
2022-11-21T00:36:41.186Z,9.40
2022-11-21T00:39:11.498Z,9.30
2022-11-21T00:41:41.079Z,9.40
2022-11-21T00:44:12.637Z,9.40
2022-11-21T00:46:42.214Z,9.50
2022-11-21T00:49:11.765Z,9.50
2022-11-21T00:51:41.207Z,9.50
2022-11-21T00:54:11.017Z,9.50
2022-11-21T00:56:40.575Z,9.50
2022-11-21T00:59:10.135Z,9.60
2022-11-21T01:01:39.757Z,9.50
2022-11-21T01:04:09.261Z,9.50
2022-11-21T01:06:39.850Z,9.50
2022-11-21T01:09:09.430Z,9.50
2022-11-21T01:11:38.939Z,9.50
2022-11-21T01:14:08.508Z,9.50
2022-11-21T01:16:37.941Z,9.50
2022-11-21T01:19:07.675Z,9.50
2022-11-21T01:21:37.102Z,9.40
2022-11-21T01:24:06.671Z,9.40
2022-11-21T01:26:37.794Z,9.30
2022-11-21T01:29:08.964Z,9.30
2022-11-21T01:31:38.452Z,9.30
2022-11-21T01:34:07.997Z,9.40
2022-11-21T01:36:37.535Z,9.50
2022-11-21T01:39:08.403Z,9.40
2022-11-21T01:41:46.778Z,9.50
2022-11-21T01:44:21.945Z,9.30
2022-11-21T01:46:53.142Z,9.30
2022-11-21T01:49:32.214Z,9.20
2022-11-21T01:52:20.312Z,9.20
2022-11-21T01:54:59.116Z,9.20
2022-11-21T01:57:34.767Z,9.20
2022-11-21T02:00:16.312Z,9.20
2022-11-21T02:02:48.846Z,9.30
2022-11-21T02:05:21.342Z,9.20
2022-11-21T02:07:52.877Z,9.20
2022-11-21T02:10:23.019Z,9.30
2022-11-21T02:12:56.227Z,9.20
2022-11-21T02:15:28.660Z,9.20
2022-11-21T02:17:58.171Z,9.20
2022-11-21T02:20:29.923Z,9.30
2022-11-21T02:23:08.415Z,9.30
2022-11-21T02:25:41.955Z,9.40
2022-11-21T02:28:14.505Z,9.40
2022-11-21T02:30:44.671Z,9.40
2022-11-21T02:33:15.267Z,9.40
2022-11-21T02:35:45.223Z,9.50
2022-11-21T02:38:20.465Z,9.50
2022-11-21T02:41:07.858Z,9.50
2022-11-21T02:43:43.282Z,9.40
2022-11-21T02:46:12.714Z,9.50
2022-11-21T02:48:42.393Z,9.40
2022-11-21T02:51:11.971Z,9.40
2022-11-21T02:53:41.400Z,9.50
2022-11-21T02:56:10.822Z,9.50
2022-11-21T02:58:41.184Z,9.40
2022-11-21T03:01:10.662Z,9.50
2022-11-21T03:03:40.293Z,9.40
2022-11-21T03:06:09.896Z,9.30
2022-11-21T03:08:39.451Z,9.30
2022-11-21T03:11:09.020Z,9.40
2022-11-21T03:13:38.658Z,9.40
2022-11-21T03:16:08.226Z,9.40
2022-11-21T03:18:37.800Z,9.30
2022-11-21T03:21:07.325Z,9.20
2022-11-21T03:25:43.694Z,9.20
2022-11-21T03:28:13.189Z,9.20
2022-11-21T03:30:42.754Z,9.20
2022-11-21T03:33:12.239Z,9.20
2022-11-21T03:35:41.754Z,9.20
2022-11-21T03:38:11.252Z,9.20
2022-11-21T03:40:40.737Z,9.10
2022-11-21T03:43:10.434Z,9.10
2022-11-21T03:45:39.865Z,9.10
2022-11-21T03:48:09.291Z,9.10
2022-11-21T03:50:38.816Z,9.10
2022-11-21T03:53:08.244Z,9.10
2022-11-21T03:55:37.661Z,9.10
2022-11-21T03:58:07.289Z,9.20
2022-11-21T04:00:37.570Z,9.20
2022-11-21T04:03:06.952Z,9.20
2022-11-21T04:05:36.494Z,9.20
2022-11-21T04:08:06.159Z,9.10
2022-11-21T04:10:35.649Z,9.10
2022-11-21T04:13:05.625Z,9.10
2022-11-21T04:15:35.114Z,9.20
2022-11-21T04:18:04.724Z,9.20
2022-11-21T04:20:34.418Z,9.20
2022-11-21T04:23:04.971Z,9.10
2022-11-21T04:25:34.957Z,9.20
2022-11-21T04:28:05.693Z,9.20
2022-11-21T04:30:36.414Z,9.20
2022-11-21T04:33:05.908Z,9.20
2022-11-21T04:35:35.412Z,9.30
2022-11-21T04:38:05.015Z,9.30
2022-11-21T04:40:35.985Z,9.20
2022-11-21T04:43:07.235Z,9.30
2022-11-21T04:45:36.981Z,9.30
2022-11-21T04:48:06.739Z,9.30
2022-11-21T04:50:36.483Z,9.30
2022-11-21T04:53:06.427Z,9.30
2022-11-21T04:55:35.997Z,9.30
2022-11-21T04:58:05.630Z,9.30
2022-11-21T05:00:37.219Z,9.30
2022-11-21T05:03:09.351Z,9.30
2022-11-21T05:05:38.935Z,9.30
2022-11-21T05:08:08.364Z,9.30
2022-11-21T05:10:39.565Z,9.30
2022-11-21T05:13:22.166Z,9.30
2022-11-21T05:15:55.201Z,9.30
2022-11-21T05:18:23.897Z,9.20
2022-11-21T05:20:53.327Z,9.30
2022-11-21T05:23:22.878Z,9.30
2022-11-21T05:25:52.466Z,9.30
2022-11-21T05:28:22.026Z,9.30
2022-11-21T05:30:51.728Z,9.30
2022-11-21T05:33:21.373Z,9.30
2022-11-21T05:35:50.900Z,9.40
2022-11-21T05:38:20.402Z,9.40
2022-11-21T05:40:49.890Z,9.40
2022-11-21T05:43:37.468Z,9.30
2022-11-21T05:46:07.046Z,9.40
2022-11-21T05:48:37.052Z,9.30
2022-11-21T05:51:06.616Z,9.40
2022-11-21T05:53:37.091Z,9.30
2022-11-21T05:56:09.685Z,9.30
2022-11-21T05:58:39.948Z,9.30
2022-11-21T06:01:12.032Z,9.40
2022-11-21T06:03:43.773Z,9.30
2022-11-21T06:06:19.637Z,9.40
2022-11-21T06:08:48.407Z,9.40
2022-11-21T06:11:18.766Z,9.40
2022-11-21T06:13:48.355Z,9.40
2022-11-21T06:16:20.181Z,9.40
2022-11-21T06:18:58.136Z,9.50
2022-11-21T06:21:28.757Z,9.50
2022-11-21T06:23:59.499Z,9.50
2022-11-21T06:26:29.726Z,9.40
2022-11-21T06:28:59.417Z,9.50
2022-11-21T06:31:29.035Z,9.50
2022-11-21T06:34:00.136Z,9.50
2022-11-21T06:36:29.641Z,9.50
2022-11-21T06:38:59.069Z,9.40
2022-11-21T06:41:30.436Z,9.40
2022-11-21T06:44:03.813Z,9.40
2022-11-21T06:46:33.438Z,9.40
2022-11-21T06:49:03.000Z,9.40
2022-11-21T06:51:32.494Z,9.40
2022-11-21T06:54:02.083Z,9.40
2022-11-21T06:56:33.448Z,9.30
2022-11-21T06:59:03.431Z,9.40
2022-11-21T07:01:33.119Z,9.30
2022-11-21T07:04:02.628Z,9.30
2022-11-21T07:06:32.221Z,9.30
2022-11-21T07:11:33.122Z,9.30
2022-11-21T07:14:07.742Z,9.30
2022-11-21T07:16:35.395Z,9.30
2022-11-21T07:19:05.063Z,9.30
2022-11-21T07:21:34.623Z,9.30
2022-11-21T07:24:04.264Z,9.30
2022-11-21T07:26:33.817Z,9.20
2022-11-21T07:29:03.388Z,9.30
2022-11-21T07:31:32.991Z,9.20
2022-11-21T07:34:02.482Z,9.20
2022-11-21T07:36:33.107Z,9.20
2022-11-21T07:39:03.122Z,9.20
2022-11-21T07:41:33.032Z,9.10
2022-11-21T07:44:02.590Z,9.10
2022-11-21T07:46:32.186Z,9.20
2022-11-21T07:49:03.498Z,9.20
2022-11-21T07:51:33.991Z,9.20
2022-11-21T07:54:03.580Z,9.20
2022-11-21T07:56:33.017Z,9.20
2022-11-21T07:59:02.582Z,9.30
2022-11-21T08:01:34.124Z,9.10
2022-11-21T08:04:03.753Z,9.10
2022-11-21T08:06:33.146Z,9.10
2022-11-21T08:09:02.705Z,9.10
2022-11-21T08:11:32.980Z,9.10
2022-11-21T08:14:02.397Z,9.10
2022-11-21T08:16:33.116Z,9.00
2022-11-21T08:19:03.072Z,9.10
2022-11-21T08:21:32.570Z,9.10
2022-11-21T08:24:02.158Z,9.00
2022-11-21T08:26:31.591Z,8.90
2022-11-21T08:29:01.822Z,9.00
2022-11-21T08:31:31.511Z,9.10
2022-11-21T08:34:00.944Z,9.00
2022-11-21T08:36:30.442Z,9.00
2022-11-21T08:39:00.071Z,9.10
2022-11-21T08:41:47.635Z,9.00
2022-11-21T08:44:17.235Z,9.00
2022-11-21T08:46:46.663Z,9.00
2022-11-21T08:49:16.563Z,9.00
2022-11-21T08:51:50.290Z,9.10
2022-11-21T08:54:22.882Z,9.00
2022-11-21T08:56:52.992Z,9.20
2022-11-21T08:59:22.403Z,9.10
2022-11-21T09:01:52.967Z,9.10
2022-11-21T09:04:22.815Z,9.20
2022-11-21T09:06:52.386Z,9.20
2022-11-21T09:09:25.334Z,9.30
2022-11-21T09:11:53.087Z,9.40
2022-11-21T09:14:40.661Z,9.40
2022-11-21T09:17:33.120Z,9.50
2022-11-21T09:20:02.844Z,9.40
2022-11-21T09:22:32.656Z,9.40
2022-11-21T09:25:02.203Z,9.40
2022-11-21T09:27:32.846Z,9.30
2022-11-21T09:30:02.728Z,9.20
2022-11-21T09:32:32.283Z,9.30
2022-11-21T09:35:01.786Z,9.30
2022-11-21T09:37:31.357Z,9.40
2022-11-21T09:40:00.774Z,9.40
2022-11-21T09:42:51.597Z,9.40
2022-11-21T09:45:35.939Z,9.40
2022-11-21T09:48:11.061Z,9.50
2022-11-21T09:50:47.086Z,9.50
2022-11-21T09:53:21.360Z,9.60
2022-11-21T09:56:00.310Z,9.60
2022-11-21T09:58:44.875Z,9.40
2022-11-21T10:01:17.124Z,9.40
2022-11-21T10:03:50.186Z,9.50
2022-11-21T10:06:32.373Z,9.60
2022-11-21T10:09:35.040Z,9.50
2022-11-21T10:12:38.354Z,9.40
2022-11-21T10:15:43.744Z,9.40
2022-11-21T10:18:35.964Z,9.60
2022-11-21T10:21:23.698Z,9.50
2022-11-21T10:24:30.131Z,9.50
2022-11-21T10:27:02.768Z,9.50
2022-11-21T10:29:44.545Z,9.60
2022-11-21T10:32:25.606Z,9.60
2022-11-21T10:34:58.267Z,9.60
2022-11-21T10:37:28.543Z,9.50
2022-11-21T10:40:00.357Z,9.50
2022-11-21T10:42:32.849Z,9.60
2022-11-21T10:45:19.559Z,9.60
2022-11-21T10:47:51.830Z,9.70
2022-11-21T10:50:50.010Z,9.60
2022-11-21T10:53:40.049Z,9.70
2022-11-21T10:56:12.762Z,9.60
2022-11-21T10:58:45.384Z,9.50
2022-11-21T11:01:30.299Z,9.60
2022-11-21T11:04:29.179Z,9.80
2022-11-21T11:06:46.252Z,9.80
2022-11-21T11:09:30.319Z,9.80
2022-11-21T11:12:23.189Z,9.70
2022-11-21T11:14:58.798Z,9.80
2022-11-21T11:17:31.154Z,9.70
2022-11-21T11:20:09.505Z,9.90
2022-11-21T11:22:39.158Z,9.90
2022-11-21T11:25:10.774Z,10.00
2022-11-21T11:27:40.237Z,10.00
2022-11-21T11:30:12.793Z,10.10
2022-11-21T11:32:42.524Z,10.10
2022-11-21T11:35:23.887Z,10.30
2022-11-21T11:38:03.539Z,10.40
2022-11-21T11:40:38.660Z,10.40
2022-11-21T11:43:28.662Z,10.40
2022-11-21T11:46:45.050Z,10.40
2022-11-21T11:49:32.441Z,10.60
2022-11-21T11:52:05.255Z,10.60
2022-11-21T11:54:37.818Z,10.60
2022-11-21T11:57:07.595Z,10.70
2022-11-21T11:59:40.695Z,10.70
2022-11-21T12:02:23.668Z,10.90
2022-11-21T12:05:01.724Z,11.00
2022-11-21T12:10:17.286Z,11.00
2022-11-21T12:12:52.628Z,11.00
2022-11-21T12:15:42.967Z,11.00
2022-11-21T12:18:18.190Z,11.00
2022-11-21T12:21:05.920Z,11.00
2022-11-21T12:23:50.334Z,11.00
2022-11-21T12:26:22.875Z,10.90
2022-11-21T12:29:15.253Z,11.00
2022-11-21T12:32:07.205Z,11.00
2022-11-21T12:34:39.706Z,11.00
2022-11-21T12:37:33.405Z,11.10
2022-11-21T12:40:17.855Z,11.10
2022-11-21T12:43:15.921Z,11.20
2022-11-21T12:45:51.597Z,11.30
2022-11-21T12:48:51.105Z,11.40
2022-11-21T12:52:14.665Z,11.40
2022-11-21T12:54:50.033Z,11.50
2022-11-21T12:57:22.086Z,11.50
2022-11-21T13:00:00.783Z,11.60
2022-11-21T13:02:57.399Z,11.60
2022-11-21T13:05:32.646Z,11.70
2022-11-21T13:08:05.144Z,11.70
2022-11-21T13:10:34.819Z,11.70
2022-11-21T13:13:22.053Z,11.70
2022-11-21T13:16:00.404Z,11.70
2022-11-21T13:18:38.747Z,11.60
2022-11-21T13:21:11.239Z,11.70
2022-11-21T13:23:43.620Z,11.70
2022-11-21T13:26:34.285Z,11.80
2022-11-21T13:29:10.061Z,11.80
2022-11-21T13:31:41.263Z,11.70
2022-11-21T13:34:37.113Z,11.80
2022-11-21T13:37:07.191Z,12.00
2022-11-21T13:39:38.982Z,12.20
2022-11-21T13:42:29.202Z,12.30
2022-11-21T13:44:59.548Z,12.30
2022-11-21T13:47:56.725Z,12.30
2022-11-21T13:50:30.163Z,12.30
2022-11-21T13:53:05.363Z,12.20
2022-11-21T13:55:49.804Z,12.20
2022-11-21T13:58:49.668Z,12.20
2022-11-21T14:01:28.158Z,12.20
2022-11-21T14:04:03.407Z,12.20
2022-11-21T14:06:36.545Z,12.20
2022-11-21T14:09:15.875Z,12.10
2022-11-21T14:11:54.749Z,12.00
2022-11-21T14:14:48.030Z,12.00
2022-11-21T14:17:23.444Z,12.00
2022-11-21T14:19:58.911Z,11.90
2022-11-21T14:22:35.524Z,12.00
2022-11-21T14:25:04.489Z,11.90
2022-11-21T14:27:40.769Z,11.90
2022-11-21T14:30:09.217Z,11.90
2022-11-21T14:32:38.908Z,11.90
2022-11-21T14:35:14.624Z,11.80
2022-11-21T14:37:44.150Z,11.80
2022-11-21T14:40:16.491Z,11.80
2022-11-21T14:42:47.135Z,11.70
2022-11-21T14:45:23.226Z,11.80
2022-11-21T14:47:55.106Z,11.80
2022-11-21T14:50:28.221Z,11.80
2022-11-21T14:52:59.691Z,11.80
2022-11-21T14:55:33.761Z,11.70
2022-11-21T14:58:06.664Z,11.70
2022-11-21T15:03:13.275Z,11.70
2022-11-21T15:08:42.253Z,11.70
2022-11-21T15:10:45.198Z,11.70
2022-11-21T15:13:17.428Z,11.60
2022-11-21T15:15:50.063Z,11.50
2022-11-21T15:18:30.979Z,11.60
2022-11-21T15:21:03.203Z,11.50
2022-11-21T15:23:42.580Z,11.50
2022-11-21T15:26:33.078Z,11.30
2022-11-21T15:29:03.086Z,11.40
2022-11-21T15:31:32.729Z,11.40
2022-11-21T15:36:35.502Z,11.40
2022-11-21T15:39:13.671Z,11.40
2022-11-21T15:41:43.171Z,11.30
2022-11-21T15:44:15.791Z,11.30
2022-11-21T15:46:47.145Z,11.30
2022-11-21T15:49:32.505Z,11.30
2022-11-21T15:54:23.253Z,11.20
2022-11-21T15:56:52.815Z,11.30
2022-11-21T15:57:14.470Z,11.20
2022-11-21T15:59:22.255Z,11.20
2022-11-21T16:01:51.825Z,11.20
2022-11-21T16:04:25.635Z,11.20
2022-11-21T16:06:53.122Z,11.10
2022-11-21T16:09:22.696Z,11.20
2022-11-21T16:11:52.993Z,11.20
2022-11-21T16:14:22.490Z,11.10
2022-11-21T16:16:51.994Z,11.20
2022-11-21T16:19:21.515Z,11.20
2022-11-21T16:21:51.132Z,11.10
2022-11-21T16:24:20.633Z,11.10
2022-11-21T16:26:52.072Z,11.20
2022-11-21T16:29:21.638Z,11.20
2022-11-21T16:31:55.816Z,11.10
2022-11-21T16:34:26.483Z,11.10
2022-11-21T16:36:56.911Z,11.10
2022-11-21T16:39:26.556Z,11.00
2022-11-21T16:41:56.059Z,11.00
2022-11-21T16:44:25.678Z,11.00
2022-11-21T16:46:55.515Z,11.00
2022-11-21T16:49:25.144Z,11.00
2022-11-21T16:51:56.464Z,10.90
2022-11-21T16:54:29.147Z,11.00
2022-11-21T16:56:57.812Z,11.00
2022-11-21T16:59:27.704Z,10.90
2022-11-21T17:01:57.713Z,10.90
2022-11-21T17:04:28.145Z,10.90
2022-11-21T17:06:57.729Z,10.90
2022-11-21T17:09:27.312Z,10.80
2022-11-21T17:11:58.565Z,10.80
2022-11-21T17:14:28.430Z,10.80
2022-11-21T17:17:01.355Z,10.70
2022-11-21T17:19:30.868Z,10.70
2022-11-21T17:22:00.445Z,10.70
2022-11-21T17:24:30.401Z,10.70
2022-11-21T17:27:02.451Z,10.50
2022-11-21T17:29:32.059Z,10.50
2022-11-21T17:32:01.482Z,10.50
2022-11-21T17:34:33.280Z,10.50
2022-11-21T17:37:02.266Z,10.50
2022-11-21T17:39:32.478Z,10.40
2022-11-21T17:42:03.269Z,10.40
2022-11-21T17:44:33.414Z,10.40
2022-11-21T17:47:19.465Z,10.30
2022-11-21T17:49:50.704Z,10.30
2022-11-21T17:52:20.695Z,10.20
2022-11-21T17:54:50.161Z,10.20
2022-11-21T17:57:19.733Z,10.20
2022-11-21T17:59:49.319Z,10.10
2022-11-21T18:02:20.589Z,10.00
2022-11-21T18:04:50.508Z,10.00
2022-11-21T18:07:20.023Z,9.90
2022-11-21T18:09:49.488Z,9.90
2022-11-21T18:12:18.987Z,9.80
2022-11-21T18:14:48.588Z,9.90
2022-11-21T18:17:18.081Z,9.80
2022-11-21T18:19:47.529Z,9.80
2022-11-21T18:22:17.237Z,9.80
2022-11-21T18:24:47.345Z,9.80
2022-11-21T18:27:16.839Z,9.70
2022-11-21T18:29:47.017Z,9.70
2022-11-21T18:32:16.737Z,9.80
2022-11-21T18:34:46.984Z,9.70
2022-11-21T18:37:17.248Z,9.70
2022-11-21T18:39:47.323Z,9.60
2022-11-21T18:42:16.834Z,9.60
2022-11-21T18:44:47.118Z,9.60
2022-11-21T18:47:20.778Z,9.60
2022-11-21T18:49:48.075Z,9.60
2022-11-21T18:52:17.699Z,9.50
2022-11-21T18:54:47.268Z,9.50
2022-11-21T18:57:16.775Z,9.50
2022-11-21T18:59:47.124Z,9.40
2022-11-21T19:02:17.003Z,9.50
2022-11-21T19:04:47.556Z,9.40
2022-11-21T19:07:17.130Z,9.30
2022-11-21T19:09:46.811Z,9.30
2022-11-21T19:12:17.688Z,9.30
2022-11-21T19:14:47.200Z,9.30
2022-11-21T19:17:16.607Z,9.30
2022-11-21T19:19:46.763Z,9.30
2022-11-21T19:22:16.377Z,9.20
2022-11-21T19:24:45.934Z,9.10
2022-11-21T19:27:15.388Z,9.10
2022-11-21T19:29:44.910Z,9.10
2022-11-21T19:32:14.332Z,9.10
2022-11-21T19:34:43.859Z,9.00
2022-11-21T19:37:13.496Z,9.00
2022-11-21T19:39:43.062Z,9.00
2022-11-21T19:42:12.635Z,9.00
2022-11-21T19:44:42.141Z,9.00
2022-11-21T19:47:12.545Z,8.90
2022-11-21T19:49:42.062Z,8.90
2022-11-21T19:52:11.638Z,8.90
2022-11-21T19:54:41.125Z,8.80
2022-11-21T19:57:13.877Z,8.90
2022-11-21T19:59:46.406Z,8.90
2022-11-21T20:02:15.997Z,8.90
2022-11-21T20:04:46.479Z,8.90
2022-11-21T20:07:16.083Z,8.80
2022-11-21T20:09:45.673Z,8.80
2022-11-21T20:12:15.119Z,8.80
2022-11-21T20:14:44.635Z,8.80
2022-11-21T20:17:14.075Z,8.80
2022-11-21T20:19:50.312Z,8.80
2022-11-21T20:22:14.804Z,8.80
2022-11-21T20:24:50.276Z,8.80
2022-11-21T20:27:16.160Z,8.70
2022-11-21T20:29:46.141Z,8.70
2022-11-21T20:32:15.722Z,8.70
2022-11-21T20:34:45.392Z,8.70
2022-11-21T20:37:14.896Z,8.60
2022-11-21T20:39:44.533Z,8.70
2022-11-21T20:42:15.203Z,8.60
2022-11-21T20:47:19.327Z,8.60
2022-11-21T20:49:48.759Z,8.60
2022-11-21T20:54:49.463Z,8.50
2022-11-21T20:57:19.030Z,8.50
2022-11-21T20:59:48.773Z,8.50
2022-11-21T21:02:23.528Z,8.40
2022-11-21T21:04:52.001Z,8.60
2022-11-21T21:07:21.599Z,8.60
2022-11-21T21:09:51.205Z,8.50
2022-11-21T21:12:20.851Z,8.50
2022-11-21T21:14:52.103Z,8.50
2022-11-21T21:17:21.634Z,8.50
2022-11-21T21:19:51.127Z,8.60
2022-11-21T21:22:22.316Z,8.50
2022-11-21T21:24:53.838Z,8.50
2022-11-21T21:27:23.492Z,8.40
2022-11-21T21:29:54.099Z,8.40
2022-11-21T21:32:23.618Z,8.40
2022-11-21T21:34:53.119Z,8.40
2022-11-21T21:37:22.776Z,8.30
2022-11-21T21:39:53.922Z,8.30
2022-11-21T21:42:23.425Z,8.30
2022-11-21T21:44:53.232Z,8.30
2022-11-21T21:47:22.720Z,8.20
2022-11-21T21:49:52.512Z,8.20
2022-11-21T21:52:22.070Z,8.20
2022-11-21T21:54:51.635Z,8.10
2022-11-21T21:57:21.123Z,8.20
2022-11-21T21:59:50.574Z,8.20
2022-11-21T22:02:20.090Z,8.10
2022-11-21T22:04:52.104Z,8.10
2022-11-21T22:07:20.866Z,8.10
2022-11-21T22:09:50.331Z,8.10
2022-11-21T22:12:19.900Z,8.10
2022-11-21T22:14:49.422Z,8.10
2022-11-21T22:17:19.550Z,8.00
2022-11-21T22:19:49.100Z,8.00
2022-11-21T22:22:18.740Z,8.00
2022-11-21T22:24:48.411Z,7.90
2022-11-21T22:27:17.830Z,7.90
2022-11-21T22:29:47.388Z,7.90
2022-11-21T22:32:19.854Z,7.90
2022-11-21T22:34:48.031Z,7.80
2022-11-21T22:37:17.446Z,7.90
2022-11-21T22:39:47.449Z,7.90
2022-11-21T22:42:17.035Z,7.80
2022-11-21T22:44:46.526Z,7.80
2022-11-21T22:47:16.069Z,7.70
2022-11-21T22:49:45.648Z,7.80
2022-11-21T22:52:15.242Z,7.60
2022-11-21T22:54:44.708Z,7.70
2022-11-21T22:57:14.144Z,7.70
2022-11-21T22:59:43.643Z,7.70
2022-11-21T23:02:13.132Z,7.70
2022-11-21T23:04:42.749Z,7.60
2022-11-21T23:07:12.380Z,7.70
2022-11-21T23:09:41.985Z,7.60
2022-11-21T23:12:11.430Z,7.60
2022-11-21T23:14:40.851Z,7.60
2022-11-21T23:17:10.442Z,7.60
2022-11-21T23:19:40.071Z,7.60
2022-11-21T23:22:09.636Z,7.60
2022-11-21T23:24:39.865Z,7.60
2022-11-21T23:27:09.367Z,7.60
2022-11-21T23:29:38.875Z,7.60
2022-11-21T23:32:08.372Z,7.50
2022-11-21T23:34:37.859Z,7.50
2022-11-21T23:37:07.355Z,7.50
2022-11-21T23:39:36.843Z,7.40
2022-11-21T23:42:06.417Z,7.40
2022-11-21T23:44:35.937Z,7.40
2022-11-21T23:47:05.522Z,7.40
2022-11-21T23:49:34.925Z,7.40
2022-11-21T23:52:04.547Z,7.30
2022-11-21T23:54:34.342Z,7.30
2022-11-21T23:57:03.983Z,7.30
2022-11-21T23:59:33.458Z,7.30
